Time;durP1;ratioP1;P1;durP2;ratioP2;P2;SDS_P1;SDS_P2;PMS_P1;PMS_P2;Temp;Humidity;BMP_temperature;BMP_pressure;BME280_temperature;BME280_humidity;BME280_pressure;Samples;Min_cycle;Max_cycle;Signal;HPM_P1;HPM_P2
2024/03/07 00:00:17;;;;;;;18.38;10.93;;;5.60;99.90;;;;;;5071264;28;20077;-94
2024/03/07 00:02:48;;;;;;;17.60;9.82;;;4.50;99.90;;;;;;5067743;28;20037;-95
2024/03/07 00:05:19;;;;;;;16.55;9.70;;;4.40;99.90;;;;;;5063969;28;20046;-94
2024/03/07 00:07:49;;;;;;;17.25;9.43;;;4.40;99.90;;;;;;5055177;28;20071;-94
2024/03/07 00:10:16;;;;;;;16.65;9.38;;;5.50;99.90;;;;;;5054603;28;20087;-94
2024/03/07 00:12:44;;;;;;;19.10;10.20;;;4.30;99.90;;;;;;5050798;28;20091;-95
2024/03/07 00:15:12;;;;;;;18.60;9.52;;;5.10;99.90;;;;;;5051229;28;20044;-94
2024/03/07 00:17:39;;;;;;;22.05;10.18;;;5.30;99.90;;;;;;5058387;28;20042;-94
2024/03/07 00:20:13;;;;;;;16.52;10.15;;;5.40;99.90;;;;;;5066922;28;20489;-94
2024/03/07 00:22:41;;;;;;;17.65;9.45;;;4.30;99.90;;;;;;5066490;28;20042;-93
2024/03/07 00:25:09;;;;;;;18.25;10.82;;;5.20;99.90;;;;;;5050185;28;20120;-94
2024/03/07 00:27:36;;;;;;;18.50;10.13;;;4.00;99.90;;;;;;5050288;28;20038;-93
2024/03/07 00:30:08;;;;;;;17.85;10.43;;;5.00;99.90;;;;;;5069165;28;20049;-93
2024/03/07 00:32:36;;;;;;;16.58;10.15;;;4.30;99.90;;;;;;5071220;28;20041;-94
2024/03/07 00:35:03;;;;;;;17.88;9.80;;;4.80;99.90;;;;;;5049869;28;20056;-93
2024/03/07 00:37:33;;;;;;;18.88;10.07;;;4.30;99.90;;;;;;5054070;28;20125;-94
2024/03/07 00:39:59;;;;;;;15.68;9.35;;;4.30;99.90;;;;;;5067522;28;20497;-94
2024/03/07 00:42:29;;;;;;;18.17;9.63;;;4.30;99.90;;;;;;5054223;28;20052;-94
2024/03/07 00:44:57;;;;;;;16.98;10.07;;;4.70;99.90;;;;;;5057377;28;20120;-95
2024/03/07 00:47:23;;;;;;;16.00;9.60;;;4.20;99.90;;;;;;5070483;28;20053;-93
2024/03/07 00:49:50;;;;;;;18.33;10.13;;;4.90;99.90;;;;;;5070627;28;20132;-93
2024/03/07 00:52:17;;;;;;;16.65;9.45;;;5.10;99.90;;;;;;5070702;28;20037;-94
2024/03/07 00:54:43;;;;;;;18.27;9.73;;;4.00;99.90;;;;;;5053536;28;20033;-94
2024/03/07 00:57:10;;;;;;;18.27;10.00;;;4.50;99.90;;;;;;5070401;28;20050;-93
2024/03/07 00:59:37;;;;;;;18.25;9.70;;;4.50;99.90;;;;;;5059525;28;20037;-93
2024/03/07 01:02:08;;;;;;;17.15;9.48;;;4.70;99.90;;;;;;5054325;28;20371;-94
2024/03/07 01:04:35;;;;;;;15.65;9.07;;;4.00;99.90;;;;;;5053511;28;20091;-94
2024/03/07 01:07:03;;;;;;;16.17;9.55;;;5.00;99.90;;;;;;5056645;28;20517;-95
2024/03/07 01:09:30;;;;;;;22.10;10.48;;;3.80;99.90;;;;;;5070036;28;20041;-93
2024/03/07 01:11:56;;;;;;;18.52;10.35;;;3.80;99.90;;;;;;5068735;28;20038;-94
2024/03/07 01:14:23;;;;;;;17.77;9.82;;;3.70;99.90;;;;;;5070100;28;20041;-94
2024/03/07 01:16:50;;;;;;;19.80;10.02;;;4.80;99.90;;;;;;5066773;28;20037;-94
2024/03/07 01:19:16;;;;;;;18.55;9.55;;;4.30;99.90;;;;;;5078301;28;20098;-94
2024/03/07 01:21:43;;;;;;;18.27;9.85;;;3.50;99.90;;;;;;5053861;28;20076;-94
2024/03/07 01:24:10;;;;;;;15.43;9.02;;;3.50;99.90;;;;;;5053593;28;20129;-95
2024/03/07 01:26:36;;;;;;;16.63;9.50;;;4.60;99.90;;;;;;5069685;28;20041;-95
2024/03/07 01:29:06;;;;;;;18.80;9.40;;;4.50;99.90;;;;;;5060634;28;20067;-95
2024/03/07 01:31:33;;;;;;;18.83;9.65;;;4.50;99.90;;;;;;5052766;28;20091;-94
2024/03/07 01:34:00;;;;;;;18.38;9.98;;;4.10;99.90;;;;;;5053056;28;20041;-94
2024/03/07 01:36:27;;;;;;;17.80;10.57;;;4.40;99.90;;;;;;5061520;28;20037;-94
2024/03/07 01:38:53;;;;;;;18.55;10.45;;;3.30;99.90;;;;;;5080500;28;20453;-95
2024/03/07 01:41:20;;;;;;;14.73;9.57;;;3.20;99.90;;;;;;5089377;28;20090;-94
2024/03/07 01:43:47;;;;;;;19.13;10.32;;;4.10;99.90;;;;;;5051804;28;20077;-95
2024/03/07 01:46:16;;;;;;;20.50;10.05;;;3.20;99.90;;;;;;5052935;28;20081;-95
2024/03/07 01:48:43;;;;;;;15.90;8.45;;;4.20;99.90;;;;;;5069155;28;20053;-95
2024/03/07 01:51:10;;;;;;;17.25;9.73;;;4.20;99.90;;;;;;5053008;28;20125;-94
2024/03/07 01:53:40;;;;;;;16.58;9.52;;;4.00;99.90;;;;;;5069598;28;20042;-96
2024/03/07 01:56:09;;;;;;;18.10;9.73;;;4.30;99.90;;;;;;5054714;28;20037;-94
2024/03/07 01:58:37;;;;;;;17.75;10.25;;;3.00;99.90;;;;;;5070516;28;20038;-95
2024/03/07 02:01:03;;;;;;;18.63;10.50;;;3.00;99.90;;;;;;5083075;28;20590;-93
2024/03/07 02:03:30;;;;;;;17.73;9.98;;;4.00;99.90;;;;;;5073330;28;20085;-94
2024/03/07 02:05:57;;;;;;;18.63;10.30;;;4.20;99.90;;;;;;5052753;28;20053;-95
2024/03/07 02:08:24;;;;;;;18.70;10.13;;;3.40;99.90;;;;;;5082058;28;20040;-94
2024/03/07 02:10:50;;;;;;;17.13;9.38;;;2.90;99.90;;;;;;5052269;28;20041;-94
2024/03/07 02:13:18;;;;;;;17.92;9.82;;;3.00;99.90;;;;;;5068113;28;20029;-96
2024/03/07 02:15:44;;;;;;;19.02;9.30;;;2.90;99.90;;;;;;5051969;28;20037;-96
2024/03/07 02:18:11;;;;;;;18.13;9.57;;;3.60;99.90;;;;;;5052029;28;20099;-94
2024/03/07 02:20:42;;;;;;;17.50;10.13;;;3.70;99.90;;;;;;5053008;28;20041;-94
2024/03/07 02:23:08;;;;;;;17.13;10.05;;;3.60;99.90;;;;;;5052204;28;20041;-93
2024/03/07 02:25:37;;;;;;;17.58;9.35;;;4.20;99.90;;;;;;5068446;28;20395;-94
2024/03/07 02:28:04;;;;;;;18.05;9.63;;;3.30;99.90;;;;;;5052016;28;20205;-95
2024/03/07 02:30:32;;;;;;;14.93;9.45;;;2.70;99.90;;;;;;5060153;28;20044;-93
2024/03/07 02:33:06;;;;;;;19.98;9.73;;;3.50;99.90;;;;;;5072178;28;20045;-95
2024/03/07 02:35:35;;;;;;;15.95;9.27;;;3.00;99.90;;;;;;5061567;28;20033;-95
2024/03/07 02:38:05;;;;;;;20.42;9.77;;;3.90;99.90;;;;;;5054510;28;20044;-96
2024/03/07 02:40:32;;;;;;;19.00;10.40;;;3.90;99.90;;;;;;5051691;28;20030;-94
2024/03/07 02:42:58;;;;;;;15.57;8.95;;;2.60;99.90;;;;;;5065109;28;20042;-94
2024/03/07 02:45:26;;;;;;;17.65;9.57;;;3.90;99.90;;;;;;5051898;28;20557;-95
2024/03/07 02:47:53;;;;;;;18.02;10.13;;;2.60;99.90;;;;;;5057785;28;20528;-95
2024/03/07 02:50:21;;;;;;;14.13;8.80;;;3.50;99.90;;;;;;5052191;28;20120;-95
2024/03/07 02:52:49;;;;;;;16.60;9.32;;;2.70;99.90;;;;;;5058115;28;20033;-95
2024/03/07 02:55:16;;;;;;;17.02;9.75;;;3.40;99.90;;;;;;5066938;28;20114;-95
2024/03/07 02:57:43;;;;;;;16.73;9.80;;;2.70;99.90;;;;;;5058596;28;20037;-95
2024/03/07 03:00:19;;;;;;;20.45;10.90;;;2.40;99.90;;;;;;5065305;28;20509;-93
2024/03/07 03:02:47;;;;;;;21.80;10.68;;;2.40;99.90;;;;;;5067740;28;20045;-95
2024/03/07 03:05:18;;;;;;;18.27;9.93;;;2.60;99.90;;;;;;5068201;28;20045;-95
2024/03/07 03:07:52;;;;;;;16.58;9.55;;;2.40;99.90;;;;;;5061927;28;20565;-94
2024/03/07 03:10:28;;;;;;;18.67;10.10;;;3.10;99.90;;;;;;5054414;28;20514;-94
2024/03/07 03:12:57;;;;;;;16.75;9.50;;;2.20;99.90;;;;;;5059985;28;20072;-94
2024/03/07 03:15:24;;;;;;;19.75;10.25;;;3.10;99.90;;;;;;5063605;28;20049;-94
2024/03/07 03:17:51;;;;;;;18.38;10.52;;;3.30;99.90;;;;;;5067682;28;20075;-95
2024/03/07 03:20:24;;;;;;;16.10;9.73;;;3.00;99.90;;;;;;5067969;28;20065;-95
2024/03/07 03:22:54;;;;;;;18.45;10.70;;;2.10;99.90;;;;;;5050629;28;20041;-95
2024/03/07 03:25:21;;;;;;;21.02;10.73;;;2.10;99.90;;;;;;5069710;28;20499;-95
2024/03/07 03:27:48;;;;;;;18.17;9.48;;;2.10;99.90;;;;;;5079326;28;20084;-95
2024/03/07 03:30:18;;;;;;;18.58;10.45;;;2.00;99.90;;;;;;5057718;28;20048;-94
2024/03/07 03:32:46;;;;;;;18.85;10.27;;;2.00;99.90;;;;;;5068407;28;20528;-95
2024/03/07 03:35:18;;;;;;;19.17;10.57;;;3.00;99.90;;;;;;5066749;28;20075;-95
2024/03/07 03:37:45;;;;;;;17.33;10.07;;;3.00;99.90;;;;;;5051943;28;20045;-95
2024/03/07 03:40:12;;;;;;;16.67;9.80;;;3.10;99.90;;;;;;5077056;28;20038;-94
2024/03/07 03:42:40;;;;;;;17.23;9.77;;;3.00;99.90;;;;;;5066929;28;20577;-94
2024/03/07 03:45:09;;;;;;;19.33;10.43;;;2.80;99.90;;;;;;5059261;28;20047;-94
2024/03/07 03:47:37;;;;;;;20.40;10.40;;;1.90;99.90;;;;;;5069898;28;20486;-94
2024/03/07 03:50:08;;;;;;;18.90;10.55;;;3.10;99.90;;;;;;5067413;28;20041;-95
2024/03/07 03:52:35;;;;;;;20.05;10.77;;;2.00;99.90;;;;;;5071657;28;20477;-95
2024/03/07 03:55:05;;;;;;;17.77;10.80;;;1.90;99.90;;;;;;5050541;28;20048;-95
2024/03/07 03:57:33;;;;;;;17.73;10.32;;;1.90;99.90;;;;;;5050600;28;20034;-94
2024/03/07 04:00:00;;;;;;;18.73;10.75;;;3.10;99.90;;;;;;5067398;28;20045;-95
2024/03/07 04:02:27;;;;;;;19.35;11.15;;;3.10;99.90;;;;;;5067157;28;20173;-94
2024/03/07 04:04:53;;;;;;;19.08;10.77;;;1.80;99.90;;;;;;5050315;28;20116;-95
2024/03/07 04:07:20;;;;;;;19.92;10.90;;;3.10;99.90;;;;;;5065077;28;20040;-94
2024/03/07 04:09:47;;;;;;;18.10;11.10;;;2.80;99.90;;;;;;5063932;28;20037;-93
2024/03/07 04:12:15;;;;;;;19.50;11.35;;;3.00;99.90;;;;;;5083606;28;20033;-92
2024/03/07 04:14:43;;;;;;;20.80;11.73;;;2.90;99.90;;;;;;5082573;28;20029;-95
2024/03/07 04:17:13;;;;;;;17.58;10.63;;;1.50;99.90;;;;;;5069711;28;20037;-91
2024/03/07 04:19:41;;;;;;;22.00;12.43;;;1.60;99.90;;;;;;5050664;28;20033;-95
2024/03/07 04:22:08;;;;;;;22.27;12.00;;;2.90;99.90;;;;;;5079921;28;20033;-95
2024/03/07 04:24:35;;;;;;;21.27;11.95;;;2.70;99.90;;;;;;5066384;28;20041;-94
2024/03/07 04:27:03;;;;;;;18.70;10.55;;;1.60;99.90;;;;;;5050382;28;20041;-95
2024/03/07 04:29:34;;;;;;;21.63;11.52;;;1.60;99.90;;;;;;5050200;28;20099;-95
2024/03/07 04:32:03;;;;;;;21.95;11.65;;;2.70;99.90;;;;;;5036020;28;20041;-94
2024/03/07 04:34:33;;;;;;;22.73;11.70;;;1.60;99.90;;;;;;5065999;28;20052;-94
2024/03/07 04:37:06;;;;;;;23.60;12.93;;;1.60;99.90;;;;;;5066945;28;20032;-95
2024/03/07 04:39:33;;;;;;;23.00;11.88;;;2.80;99.90;;;;;;5066717;28;20601;-94
2024/03/07 04:42:01;;;;;;;22.35;12.85;;;1.60;99.90;;;;;;5059868;28;20077;-93
2024/03/07 04:44:28;;;;;;;21.75;12.80;;;1.80;99.90;;;;;;5083192;28;20490;-94
2024/03/07 04:46:56;;;;;;;25.83;12.18;;;1.60;99.90;;;;;;5066573;28;20041;-93
2024/03/07 04:49:24;;;;;;;24.35;12.57;;;2.40;99.90;;;;;;5049904;28;20037;-94
2024/03/07 04:51:54;;;;;;;22.75;12.52;;;2.00;99.90;;;;;;5050853;28;20086;-94
2024/03/07 04:54:22;;;;;;;23.58;12.65;;;1.60;99.90;;;;;;5066761;28;20034;-93
2024/03/07 04:56:50;;;;;;;21.45;12.15;;;2.60;99.90;;;;;;5050090;28;20049;-94
2024/03/07 04:59:18;;;;;;;23.85;13.23;;;2.70;99.90;;;;;;5076193;28;20034;-94
2024/03/07 05:01:46;;;;;;;22.85;13.02;;;1.50;99.90;;;;;;5067622;28;20054;-94
2024/03/07 05:04:14;;;;;;;20.10;12.05;;;1.50;99.90;;;;;;5072582;28;20932;-94
2024/03/07 05:06:41;;;;;;;24.33;13.50;;;2.40;99.90;;;;;;5066377;28;20128;-95
2024/03/07 05:09:08;;;;;;;22.77;13.27;;;1.50;99.90;;;;;;5049957;28;20379;-95
2024/03/07 05:11:36;;;;;;;24.25;14.15;;;1.90;99.90;;;;;;5056777;28;20041;-94
2024/03/07 05:14:03;;;;;;;23.25;13.27;;;1.40;99.90;;;;;;5066527;28;20046;-95
2024/03/07 05:16:33;;;;;;;26.67;13.88;;;1.70;99.90;;;;;;5066485;28;20080;-94
2024/03/07 05:19:00;;;;;;;25.45;14.02;;;1.40;99.90;;;;;;5076241;28;20037;-94
2024/03/07 05:24:04;;;;;;;26.08;14.18;;;1.30;99.90;;;;;;5058429;28;20045;-95
2024/03/07 05:26:37;;;;;;;30.38;15.00;;;0.50;99.90;;;;;;5071716;28;20041;-94
2024/03/07 05:29:05;;;;;;;30.80;15.23;;;1.70;99.90;;;;;;5077156;28;20059;-94
2024/03/07 05:31:35;;;;;;;28.58;15.40;;;2.40;99.90;;;;;;5056236;28;20037;-94
2024/03/07 05:34:04;;;;;;;27.25;15.07;;;2.70;99.90;;;;;;5053457;28;20040;-94
2024/03/07 05:36:32;;;;;;;27.42;16.02;;;2.50;99.90;;;;;;5062125;28;20044;-95
2024/03/07 05:38:59;;;;;;;33.42;16.95;;;2.00;99.90;;;;;;5079925;28;20116;-94
2024/03/07 05:41:29;;;;;;;33.30;16.88;;;1.20;99.90;;;;;;5055202;28;20068;-94
2024/03/07 05:43:56;;;;;;;35.20;16.77;;;;;;;;;;5069061;28;20056;-94
2024/03/07 05:46:23;;;;;;;34.47;17.25;;;1.20;99.90;;;;;;5049988;28;20064;-94
2024/03/07 05:48:52;;;;;;;40.35;18.08;;;1.20;99.90;;;;;;5062296;28;20041;-94
2024/03/07 05:51:18;;;;;;;45.35;20.85;;;2.40;99.90;;;;;;5052708;28;20486;-94
2024/03/07 05:53:45;;;;;;;45.78;21.08;;;1.30;99.90;;;;;;5081861;28;20044;-94
2024/03/07 05:56:12;;;;;;;107.75;22.65;;;2.70;99.90;;;;;;5069210;28;20034;-94
2024/03/07 05:58:39;;;;;;;57.75;22.38;;;2.20;99.90;;;;;;5069463;28;20500;-95
2024/03/07 06:01:08;;;;;;;57.95;23.17;;;1.90;99.90;;;;;;5082545;28;20482;-94
2024/03/07 06:03:35;;;;;;;51.97;22.55;;;2.20;99.90;;;;;;5092661;28;20045;-94
2024/03/07 06:06:02;;;;;;;106.90;24.60;;;1.20;99.90;;;;;;5057420;28;20029;-94
2024/03/07 06:08:28;;;;;;;113.68;24.48;;;1.20;99.90;;;;;;5078444;28;20513;-94
2024/03/07 06:10:55;;;;;;;79.88;24.20;;;2.40;99.90;;;;;;5063177;28;20120;-95
2024/03/07 06:13:22;;;;;;;163.50;24.95;;;2.50;99.90;;;;;;5070870;28;22465;-94
2024/03/07 06:15:48;;;;;;;109.85;25.52;;;2.40;99.90;;;;;;5052736;28;20033;-94
2024/03/07 06:18:15;;;;;;;139.95;24.35;;;1.90;99.90;;;;;;5062504;28;20410;-94
2024/03/07 06:20:45;;;;;;;79.90;23.35;;;0.80;99.90;;;;;;5068524;28;20070;-95
2024/03/07 06:23:16;;;;;;;89.10;26.35;;;2.60;99.90;;;;;;5068845;28;20490;-95
2024/03/07 06:25:47;;;;;;;57.95;23.60;;;2.60;99.90;;;;;;5079302;28;20137;-93
2024/03/07 06:28:14;;;;;;;136.98;26.13;;;1.30;99.90;;;;;;5058248;28;20057;-95
2024/03/07 06:30:42;;;;;;;158.68;25.27;;;0.60;99.90;;;;;;5062140;28;20490;-95
2024/03/07 06:33:10;;;;;;;90.88;23.80;;;1.30;99.90;;;;;;5073148;28;20072;-94
2024/03/07 06:35:38;;;;;;;78.63;23.90;;;1.00;99.90;;;;;;5071818;28;20045;-96
2024/03/07 06:38:06;;;;;;;76.00;24.20;;;2.30;99.90;;;;;;5054044;28;20033;-94
2024/03/07 06:40:33;;;;;;;112.95;25.20;;;2.10;99.90;;;;;;5074836;28;20037;-95
2024/03/07 06:43:00;;;;;;;51.97;23.77;;;1.30;99.90;;;;;;5075854;28;20045;-94
2024/03/07 06:45:26;;;;;;;110.80;23.92;;;2.40;99.90;;;;;;5067251;28;20040;-95
2024/03/07 06:47:54;;;;;;;80.28;24.10;;;2.40;99.90;;;;;;5071270;28;20048;-96
2024/03/07 06:50:21;;;;;;;104.45;23.88;;;2.50;99.90;;;;;;5056383;28;20505;-95
2024/03/07 06:52:48;;;;;;;130.38;23.42;;;0.70;99.90;;;;;;5057954;28;20852;-92
2024/03/07 06:55:19;;;;;;;111.13;24.48;;;1.30;99.90;;;;;;5078656;28;20099;-90
2024/03/07 06:57:46;;;;;;;106.25;23.70;;;2.30;99.90;;;;;;5067996;28;20092;-90
2024/03/07 07:00:18;;;;;;;115.00;24.77;;;1.40;99.90;;;;;;5072775;28;20125;-89
2024/03/07 07:02:46;;;;;;;104.50;25.42;;;1.40;99.90;;;;;;5079647;28;20040;-89
2024/03/07 07:05:15;;;;;;;65.97;23.92;;;1.40;99.90;;;;;;5070884;28;20041;-91
2024/03/07 07:07:42;;;;;;;56.78;22.92;;;2.10;99.90;;;;;;5052020;28;20048;-91
2024/03/07 07:10:18;;;;;;;79.93;23.92;;;2.80;99.90;;;;;;5068437;28;20504;-91
2024/03/07 07:12:45;;;;;;;70.47;24.48;;;1.50;99.90;;;;;;5068501;28;20060;-91
2024/03/07 07:15:18;;;;;;;70.13;22.48;;;1.50;99.90;;;;;;5051672;28;20021;-90
2024/03/07 07:17:46;;;;;;;47.38;20.35;;;2.00;99.90;;;;;;5055483;28;20044;-91
2024/03/07 07:20:14;;;;;;;46.80;21.25;;;2.20;99.90;;;;;;5078594;28;20036;-91
2024/03/07 07:22:45;;;;;;;57.00;21.23;;;1.50;99.90;;;;;;5060448;28;20045;-91
2024/03/07 07:25:20;;;;;;;48.85;20.15;;;1.50;99.90;;;;;;5067781;28;20041;-91
2024/03/07 07:27:47;;;;;;;45.63;19.88;;;1.60;99.90;;;;;;5038301;28;20103;-91
2024/03/07 07:30:20;;;;;;;46.10;19.48;;;2.20;99.90;;;;;;5038383;28;20045;-91
2024/03/07 07:32:48;;;;;;;48.35;19.85;;;1.60;99.90;;;;;;5070313;28;20044;-91
2024/03/07 07:35:15;;;;;;;44.30;18.10;;;2.80;99.90;;;;;;5050967;28;20410;-91
2024/03/07 07:37:43;;;;;;;43.45;18.08;;;2.60;99.90;;;;;;5067430;28;20042;-90
2024/03/07 07:40:14;;;;;;;39.72;18.55;;;2.80;99.90;;;;;;5083225;28;20076;-90
2024/03/07 07:42:41;;;;;;;44.85;18.65;;;1.60;99.90;;;;;;5057549;28;20127;-91
2024/03/07 07:45:12;;;;;;;40.92;17.95;;;3.00;99.90;;;;;;5052033;28;20514;-90
2024/03/07 07:47:48;;;;;;;40.22;17.15;;;1.70;99.90;;;;;;5074758;28;20033;-91
2024/03/07 07:50:20;;;;;;;40.75;17.08;;;1.70;99.90;;;;;;5067757;28;20041;-91
2024/03/07 07:52:58;;;;;;;36.90;17.27;;;3.00;99.90;;;;;;5067273;28;20038;-91
2024/03/07 07:55:27;;;;;;;42.55;17.40;;;1.80;99.90;;;;;;5053987;28;20491;-90
2024/03/07 07:57:56;;;;;;;40.80;16.73;;;1.80;99.90;;;;;;5067380;28;20052;-91
2024/03/07 08:00:28;;;;;;;36.90;17.30;;;2.80;99.90;;;;;;5079466;28;20038;-91
2024/03/07 08:03:00;;;;;;;35.65;16.10;;;1.80;99.90;;;;;;5076697;28;20060;-91
2024/03/07 08:05:29;;;;;;;34.80;16.30;;;1.90;99.90;;;;;;5067278;28;20077;-92
2024/03/07 08:07:57;;;;;;;34.40;15.75;;;3.20;99.90;;;;;;5072243;28;20033;-91
2024/03/07 08:10:28;;;;;;;37.05;15.93;;;3.40;99.90;;;;;;5067183;28;20080;-91
2024/03/07 08:12:55;;;;;;;35.45;15.05;;;1.10;99.90;;;;;;5062040;28;20569;-90
2024/03/07 08:15:30;;;;;;;34.63;15.38;;;2.00;99.90;;;;;;5080219;28;20033;-91
2024/03/07 08:17:58;;;;;;;35.08;15.82;;;2.10;99.90;;;;;;5080319;28;20037;-91
2024/03/07 08:20:26;;;;;;;37.95;16.00;;;2.50;99.90;;;;;;5066609;28;20034;-91
2024/03/07 08:22:57;;;;;;;33.53;15.57;;;2.00;99.90;;;;;;5050465;28;20061;-92
2024/03/07 08:25:28;;;;;;;32.92;15.15;;;3.00;99.90;;;;;;5066977;28;20046;-91
2024/03/07 08:27:57;;;;;;;34.47;15.57;;;2.50;99.90;;;;;;5070700;28;20057;-91
2024/03/07 08:30:26;;;;;;;34.83;15.13;;;2.80;99.90;;;;;;5075200;28;20838;-90
2024/03/07 08:32:55;;;;;;;34.63;16.23;;;3.00;99.90;;;;;;5083824;28;20037;-91
2024/03/07 08:35:22;;;;;;;37.13;17.05;;;3.40;99.90;;;;;;5078880;28;20041;-90
2024/03/07 08:37:53;;;;;;;36.05;14.85;;;2.20;99.90;;;;;;5054865;28;20106;-91
2024/03/07 08:40:21;;;;;;;32.20;15.75;;;2.20;99.90;;;;;;5053357;28;20075;-91
2024/03/07 08:42:57;;;;;;;35.08;15.95;;;3.40;99.90;;;;;;5069291;28;20456;-90
2024/03/07 08:45:27;;;;;;;36.92;16.02;;;2.60;99.90;;;;;;5066509;28;20049;-91
2024/03/07 08:47:56;;;;;;;41.17;16.50;;;2.60;99.90;;;;;;5049998;28;20045;-91
2024/03/07 08:50:23;;;;;;;38.42;15.85;;;2.30;99.90;;;;;;5067100;28;20495;-91
2024/03/07 08:52:50;;;;;;;34.38;16.17;;;2.20;99.90;;;;;;5068092;28;20060;-91
2024/03/07 08:55:20;;;;;;;35.83;16.55;;;2.50;99.90;;;;;;5070463;28;20041;-91
2024/03/07 08:57:49;;;;;;;35.78;14.60;;;3.20;99.90;;;;;;5070593;28;20045;-91
2024/03/07 09:00:22;;;;;;;34.97;15.63;;;2.50;99.90;;;;;;5055402;28;20092;-91
2024/03/07 09:02:53;;;;;;;34.10;15.18;;;2.50;99.90;;;;;;5070122;28;20041;-91
2024/03/07 09:05:22;;;;;;;38.42;16.17;;;2.50;99.90;;;;;;5053809;28;20048;-91
2024/03/07 09:07:50;;;;;;;30.90;15.05;;;3.50;99.90;;;;;;5054056;28;20077;-91
2024/03/07 09:10:17;;;;;;;33.13;14.98;;;3.60;99.90;;;;;;5069642;28;20549;-91
2024/03/07 09:12:45;;;;;;;30.63;14.57;;;2.50;99.90;;;;;;5059555;28;20045;-91
2024/03/07 09:15:12;;;;;;;32.92;15.38;;;2.90;99.90;;;;;;5069589;28;20064;-91
2024/03/07 09:17:39;;;;;;;36.88;15.35;;;2.60;99.90;;;;;;5053528;28;20034;-91
2024/03/07 09:20:07;;;;;;;34.15;15.05;;;3.90;99.90;;;;;;5053080;28;20044;-91
2024/03/07 09:22:34;;;;;;;30.73;14.93;;;2.80;99.90;;;;;;5071470;28;20770;-91
2024/03/07 09:25:01;;;;;;;33.10;16.23;;;3.60;99.90;;;;;;5048355;28;20038;-91
2024/03/07 09:27:28;;;;;;;30.23;15.70;;;3.50;99.90;;;;;;5077622;28;20037;-91
2024/03/07 09:29:54;;;;;;;32.17;15.23;;;4.10;99.90;;;;;;5075361;28;20045;-91
2024/03/07 09:32:24;;;;;;;33.53;16.33;;;3.90;99.90;;;;;;5069281;28;20124;-91
2024/03/07 09:34:50;;;;;;;36.75;16.30;;;3.00;99.90;;;;;;5048503;28;20036;-91
2024/03/07 09:37:19;;;;;;;38.05;16.75;;;2.80;99.90;;;;;;5052920;28;20110;-90
2024/03/07 09:39:45;;;;;;;37.28;16.77;;;3.90;99.90;;;;;;5062198;28;20044;-89
2024/03/07 09:42:17;;;;;;;36.47;16.33;;;3.80;99.90;;;;;;5072058;28;20041;-92
2024/03/07 09:44:47;;;;;;;33.83;15.20;;;3.90;99.90;;;;;;5077495;28;20041;-90
2024/03/07 09:47:14;;;;;;;37.33;16.23;;;3.80;99.90;;;;;;5052900;28;20045;-89
2024/03/07 09:49:40;;;;;;;36.03;16.25;;;2.80;99.90;;;;;;5072044;28;20040;-90
2024/03/07 09:52:14;;;;;;;34.90;16.15;;;4.10;99.90;;;;;;5076508;28;20486;-90
2024/03/07 09:54:40;;;;;;;36.47;16.02;;;3.90;99.90;;;;;;5075795;28;20060;-89
2024/03/07 09:57:07;;;;;;;40.22;17.35;;;3.90;99.90;;;;;;5083852;28;20033;-89
2024/03/07 09:59:36;;;;;;;40.80;17.45;;;3.40;99.90;;;;;;5068388;28;20150;-89
2024/03/07 10:02:05;;;;;;;39.67;16.75;;;3.00;99.90;;;;;;5073765;28;20048;-91
2024/03/07 10:04:37;;;;;;;38.53;16.90;;;4.20;99.90;;;;;;5059129;28;20050;-89
2024/03/07 10:07:03;;;;;;;39.15;17.20;;;3.20;99.90;;;;;;5056763;28;20045;-88
2024/03/07 10:09:32;;;;;;;36.42;16.33;;;3.20;99.90;;;;;;5060959;28;20102;-89
2024/03/07 10:11:58;;;;;;;36.25;16.60;;;4.70;99.90;;;;;;5079540;28;20514;-88
2024/03/07 10:14:25;;;;;;;37.42;16.45;;;4.70;99.90;;;;;;5070075;28;20042;-89
2024/03/07 10:16:56;;;;;;;36.85;16.55;;;4.10;99.90;;;;;;5077624;28;20048;-89
2024/03/07 10:19:23;;;;;;;37.38;16.92;;;4.60;99.90;;;;;;5087614;28;20036;-89
2024/03/07 10:21:51;;;;;;;39.63;17.00;;;4.40;99.90;;;;;;5076589;28;20041;-90
2024/03/07 10:24:24;;;;;;;33.85;16.30;;;2.90;99.90;;;;;;5068623;28;20117;-90
2024/03/07 10:26:51;;;;;;;39.33;16.63;;;4.60;99.90;;;;;;5050779;28;20482;-90
2024/03/07 10:29:18;;;;;;;37.72;16.05;;;4.80;99.90;;;;;;5066761;28;20053;-89
2024/03/07 10:31:49;;;;;;;37.78;15.90;;;4.30;99.90;;;;;;5072995;28;20041;-91
2024/03/07 10:34:17;;;;;;;34.45;15.95;;;4.80;99.90;;;;;;5066375;28;20507;-91
2024/03/07 10:36:47;;;;;;;33.90;15.20;;;3.70;99.90;;;;;;5065585;28;20049;-91
2024/03/07 10:39:51;;;;;;;35.90;15.43;;;3.40;99.90;;;;;;5068152;28;20059;-91
2024/03/07 10:42:21;;;;;;;35.85;16.33;;;3.80;99.90;;;;;;5055492;28;20072;-90
2024/03/07 10:44:49;;;;;;;35.03;15.82;;;5.20;99.90;;;;;;5049640;28;20071;-91
2024/03/07 10:47:19;;;;;;;35.75;15.38;;;5.10;99.90;;;;;;5035592;28;20050;-90
2024/03/07 10:50:15;;;;;;;33.60;15.73;;;3.90;99.90;;;;;;5052062;28;20120;-92
2024/03/07 10:53:00;;;;;;;32.28;15.07;;;4.00;99.90;;;;;;5045157;28;20041;-90
2024/03/07 10:55:54;;;;;;;36.03;14.75;;;4.10;99.90;;;;;;5088745;28;20127;-89
2024/03/07 10:59:02;;;;;;;30.88;14.70;;;4.20;99.90;;;;;;5072439;28;20043;-88
2024/03/07 11:01:35;;;;;;;30.25;14.95;;;4.40;99.90;;;;;;5058183;28;20045;-89
2024/03/07 11:04:06;;;;;;;30.67;15.15;;;4.40;99.90;;;;;;5072575;28;20037;-88
2024/03/07 11:06:37;;;;;;;34.42;16.10;;;4.50;99.90;;;;;;5085063;28;20264;-88
2024/03/07 11:09:10;;;;;;;33.38;15.68;;;5.90;99.90;;;;;;5055355;28;20136;-88
2024/03/07 11:11:40;;;;;;;34.40;15.45;;;4.60;99.90;;;;;;5050652;28;20045;-87
2024/03/07 11:14:10;;;;;;;31.98;15.43;;;4.80;99.90;;;;;;5071726;28;20398;-88
2024/03/07 11:16:41;;;;;;;29.15;14.18;;;5.90;99.90;;;;;;5076497;28;20029;-88
2024/03/07 11:19:27;;;;;;;28.45;14.32;;;4.90;99.90;;;;;;5058333;28;20037;-89
2024/03/07 11:21:56;;;;;;;31.20;14.23;;;5.00;99.90;;;;;;5070520;28;20037;-89
2024/03/07 11:24:28;;;;;;;29.70;13.98;;;5.10;99.90;;;;;;5060148;28;20049;-89
2024/03/07 11:30:10;;;;;;;32.75;14.07;;;4.90;99.90;;;;;;5071149;28;20088;-89
2024/03/07 11:32:44;;;;;;;29.42;14.13;;;5.30;99.90;;;;;;5064609;28;20049;-89
2024/03/07 11:35:25;;;;;;;28.17;12.95;;;6.20;99.90;;;;;;5067994;28;20148;-89
2024/03/07 11:37:59;;;;;;;31.27;15.20;;;6.60;99.90;;;;;;5067596;28;20490;-89
2024/03/07 11:40:26;;;;;;;32.80;14.02;;;5.60;99.90;;;;;;5075495;28;20024;-88
2024/03/07 11:42:53;;;;;;;28.00;14.40;;;6.90;99.90;;;;;;5041753;28;20069;-88
2024/03/07 11:45:27;;;;;;;28.00;13.82;;;6.50;99.90;;;;;;5069876;28;20034;-89
2024/03/07 11:48:09;;;;;;;26.65;12.63;;;5.80;99.90;;;;;;5080118;28;20056;-89
2024/03/07 11:50:40;;;;;;;27.48;13.50;;;6.50;99.90;;;;;;5066923;28;20398;-89
2024/03/07 11:53:08;;;;;;;26.33;12.93;;;6.00;99.90;;;;;;5059346;28;20560;-89
2024/03/07 11:55:48;;;;;;;23.65;12.25;;;6.10;99.90;;;;;;5066610;28;20166;-90
2024/03/07 11:58:17;;;;;;;24.83;12.50;;;7.20;99.90;;;;;;5074926;28;20525;-89
2024/03/07 12:00:48;;;;;;;25.23;12.27;;;5.90;99.90;;;;;;5075301;28;20402;-89
2024/03/07 12:03:21;;;;;;;24.20;12.38;;;6.00;99.90;;;;;;5074504;28;20456;-90
2024/03/07 12:05:48;;;;;;;24.92;12.57;;;7.40;99.90;;;;;;5072842;28;20040;-89
2024/03/07 12:08:15;;;;;;;22.65;11.98;;;6.00;99.90;;;;;;5072240;28;20132;-90
2024/03/07 12:10:43;;;;;;;24.55;12.13;;;5.60;99.90;;;;;;5075181;28;20133;-89
2024/03/07 12:13:12;;;;;;;23.15;11.68;;;6.00;99.90;;;;;;5077776;28;20029;-89
2024/03/07 12:15:39;;;;;;;21.13;11.68;;;7.10;99.90;;;;;;5065857;28;20034;-89
2024/03/07 12:18:09;;;;;;;24.63;11.60;;;7.30;99.90;;;;;;5066557;28;20040;-89
2024/03/07 12:20:44;;;;;;;23.35;11.95;;;7.00;99.90;;;;;;5049074;28;20040;-89
2024/03/07 12:23:19;;;;;;;23.38;11.63;;;7.20;99.90;;;;;;5064201;28;20136;-89
2024/03/07 12:25:46;;;;;;;23.40;11.80;;;7.40;99.90;;;;;;5067089;28;20052;-89
2024/03/07 12:28:17;;;;;;;23.25;11.20;;;6.20;99.90;;;;;;5065581;28;20041;-89
2024/03/07 12:30:50;;;;;;;18.73;10.63;;;6.60;99.90;;;;;;5073549;28;20505;-89
2024/03/07 12:33:19;;;;;;;22.52;11.18;;;6.30;99.90;;;;;;5076401;28;20052;-89
2024/03/07 12:35:52;;;;;;;22.10;11.75;;;5.90;99.90;;;;;;5081819;28;20124;-89
2024/03/07 12:38:19;;;;;;;21.50;11.05;;;6.40;99.90;;;;;;5080028;28;20137;-89
2024/03/07 12:40:47;;;;;;;22.85;11.18;;;6.50;99.90;;;;;;5054132;28;20050;-89
2024/03/07 12:43:16;;;;;;;23.08;11.63;;;6.70;99.90;;;;;;5076677;28;20128;-89
2024/03/07 12:45:53;;;;;;;24.10;11.63;;;7.30;99.90;;;;;;5051803;28;20076;-89
2024/03/07 12:48:21;;;;;;;23.63;11.45;;;7.70;99.90;;;;;;5072168;28;20033;-90
2024/03/07 12:50:54;;;;;;;22.00;10.40;;;6.80;99.90;;;;;;5070202;28;20096;-88
2024/03/07 12:53:25;;;;;;;21.38;10.98;;;7.80;99.90;;;;;;5068931;28;20072;-89